sensor_id;sensor_type;location;lat;lon;timestamp;P1;durP1;ratioP1;P2;durP2;ratioP2
70332;SDS011;57747;43.548;-5.704;2023-07-20T00:01:24;7.03;;;2.95;;
70332;SDS011;57747;43.548;-5.704;2023-07-20T00:03:50;7.95;;;3.13;;
70332;SDS011;57747;43.548;-5.704;2023-07-20T00:06:20;7.30;;;3.63;;
70332;SDS011;57747;43.548;-5.704;2023-07-20T00:08:45;4.72;;;2.58;;
70332;SDS011;57747;43.548;-5.704;2023-07-20T00:11:10;6.00;;;3.15;;
70332;SDS011;57747;43.548;-5.704;2023-07-20T00:13:35;6.47;;;3.15;;
70332;SDS011;57747;43.548;-5.704;2023-07-20T00:16:01;3.25;;;2.50;;
70332;SDS011;57747;43.548;-5.704;2023-07-20T00:18:26;6.05;;;3.28;;
70332;SDS011;57747;43.548;-5.704;2023-07-20T00:20:51;7.78;;;3.15;;
70332;SDS011;57747;43.548;-5.704;2023-07-20T00:23:17;4.70;;;2.67;;
70332;SDS011;57747;43.548;-5.704;2023-07-20T00:25:42;7.20;;;2.88;;
70332;SDS011;57747;43.548;-5.704;2023-07-20T00:28:07;9.23;;;3.25;;
70332;SDS011;57747;43.548;-5.704;2023-07-20T00:30:33;5.50;;;2.65;;
70332;SDS011;57747;43.548;-5.704;2023-07-20T00:32:58;6.95;;;2.67;;
70332;SDS011;57747;43.548;-5.704;2023-07-20T00:35:24;7.45;;;3.42;;
70332;SDS011;57747;43.548;-5.704;2023-07-20T00:37:49;13.65;;;3.40;;
70332;SDS011;57747;43.548;-5.704;2023-07-20T00:40:15;6.95;;;3.05;;
70332;SDS011;57747;43.548;-5.704;2023-07-20T00:42:43;5.53;;;3.15;;
70332;SDS011;57747;43.548;-5.704;2023-07-20T00:45:08;7.03;;;3.13;;
70332;SDS011;57747;43.548;-5.704;2023-07-20T00:47:33;9.65;;;3.00;;
70332;SDS011;57747;43.548;-5.704;2023-07-20T00:50:02;6.85;;;3.05;;
70332;SDS011;57747;43.548;-5.704;2023-07-20T00:52:30;7.22;;;3.08;;
70332;SDS011;57747;43.548;-5.704;2023-07-20T00:55:05;9.52;;;3.58;;
70332;SDS011;57747;43.548;-5.704;2023-07-20T00:57:31;7.57;;;2.92;;
70332;SDS011;57747;43.548;-5.704;2023-07-20T01:02:34;7.03;;;2.90;;
70332;SDS011;57747;43.548;-5.704;2023-07-20T01:05:00;9.90;;;3.67;;
70332;SDS011;57747;43.548;-5.704;2023-07-20T01:12:44;5.97;;;3.20;;
70332;SDS011;57747;43.548;-5.704;2023-07-20T01:15:11;7.35;;;3.13;;
70332;SDS011;57747;43.548;-5.704;2023-07-20T01:17:37;7.43;;;3.10;;
70332;SDS011;57747;43.548;-5.704;2023-07-20T01:20:06;6.50;;;3.22;;
70332;SDS011;57747;43.548;-5.704;2023-07-20T01:22:45;7.47;;;3.10;;
70332;SDS011;57747;43.548;-5.704;2023-07-20T01:30:27;6.15;;;3.08;;
70332;SDS011;57747;43.548;-5.704;2023-07-20T01:32:55;10.02;;;3.17;;
70332;SDS011;57747;43.548;-5.704;2023-07-20T01:35:21;6.13;;;3.00;;
70332;SDS011;57747;43.548;-5.704;2023-07-20T01:37:48;6.90;;;3.15;;
70332;SDS011;57747;43.548;-5.704;2023-07-20T01:40:14;11.50;;;3.08;;
70332;SDS011;57747;43.548;-5.704;2023-07-20T01:42:43;7.75;;;2.88;;
70332;SDS011;57747;43.548;-5.704;2023-07-20T01:45:08;9.80;;;3.17;;
70332;SDS011;57747;43.548;-5.704;2023-07-20T01:47:34;7.40;;;3.08;;
70332;SDS011;57747;43.548;-5.704;2023-07-20T01:49:59;8.50;;;2.97;;
70332;SDS011;57747;43.548;-5.704;2023-07-20T01:52:24;7.68;;;3.20;;
70332;SDS011;57747;43.548;-5.704;2023-07-20T01:54:50;7.07;;;3.15;;
70332;SDS011;57747;43.548;-5.704;2023-07-20T01:57:17;5.82;;;3.00;;
70332;SDS011;57747;43.548;-5.704;2023-07-20T01:59:46;8.18;;;3.35;;
70332;SDS011;57747;43.548;-5.704;2023-07-20T02:02:11;8.30;;;3.03;;
70332;SDS011;57747;43.548;-5.704;2023-07-20T02:04:37;5.88;;;2.90;;
70332;SDS011;57747;43.548;-5.704;2023-07-20T02:07:03;6.30;;;3.25;;
70332;SDS011;57747;43.548;-5.704;2023-07-20T02:09:28;6.45;;;3.10;;
70332;SDS011;57747;43.548;-5.704;2023-07-20T02:11:54;8.98;;;3.28;;
70332;SDS011;57747;43.548;-5.704;2023-07-20T02:14:22;8.20;;;2.83;;
70332;SDS011;57747;43.548;-5.704;2023-07-20T02:16:49;5.35;;;2.92;;
70332;SDS011;57747;43.548;-5.704;2023-07-20T02:19:17;9.27;;;2.97;;
70332;SDS011;57747;43.548;-5.704;2023-07-20T02:21:43;7.00;;;3.08;;
70332;SDS011;57747;43.548;-5.704;2023-07-20T02:24:08;5.53;;;3.10;;
70332;SDS011;57747;43.548;-5.704;2023-07-20T02:26:34;9.05;;;2.80;;
70332;SDS011;57747;43.548;-5.704;2023-07-20T02:29:00;8.20;;;2.83;;
70332;SDS011;57747;43.548;-5.704;2023-07-20T02:31:27;7.55;;;3.00;;
70332;SDS011;57747;43.548;-5.704;2023-07-20T02:33:52;10.63;;;3.08;;
70332;SDS011;57747;43.548;-5.704;2023-07-20T02:36:17;5.78;;;2.70;;
70332;SDS011;57747;43.548;-5.704;2023-07-20T02:38:49;8.35;;;3.13;;
70332;SDS011;57747;43.548;-5.704;2023-07-20T02:41:25;5.57;;;2.80;;
70332;SDS011;57747;43.548;-5.704;2023-07-20T02:43:51;5.70;;;2.75;;
70332;SDS011;57747;43.548;-5.704;2023-07-20T02:46:16;8.82;;;3.25;;
70332;SDS011;57747;43.548;-5.704;2023-07-20T02:48:42;8.07;;;3.20;;
70332;SDS011;57747;43.548;-5.704;2023-07-20T02:51:07;8.52;;;2.92;;
70332;SDS011;57747;43.548;-5.704;2023-07-20T02:53:34;8.05;;;3.00;;
70332;SDS011;57747;43.548;-5.704;2023-07-20T02:56:00;3.88;;;2.53;;
70332;SDS011;57747;43.548;-5.704;2023-07-20T02:58:34;7.65;;;2.72;;
70332;SDS011;57747;43.548;-5.704;2023-07-20T03:03:38;9.18;;;3.17;;
70332;SDS011;57747;43.548;-5.704;2023-07-20T03:06:05;5.82;;;2.78;;
70332;SDS011;57747;43.548;-5.704;2023-07-20T03:08:30;6.78;;;3.30;;
70332;SDS011;57747;43.548;-5.704;2023-07-20T03:10:55;5.38;;;2.70;;
70332;SDS011;57747;43.548;-5.704;2023-07-20T03:13:21;6.32;;;2.97;;
70332;SDS011;57747;43.548;-5.704;2023-07-20T03:15:46;6.68;;;2.85;;
70332;SDS011;57747;43.548;-5.704;2023-07-20T03:18:12;7.18;;;2.78;;
70332;SDS011;57747;43.548;-5.704;2023-07-20T03:20:37;5.53;;;2.88;;
70332;SDS011;57747;43.548;-5.704;2023-07-20T03:23:03;6.70;;;3.08;;
70332;SDS011;57747;43.548;-5.704;2023-07-20T03:25:28;6.00;;;2.97;;
70332;SDS011;57747;43.548;-5.704;2023-07-20T03:27:54;5.05;;;2.72;;
70332;SDS011;57747;43.548;-5.704;2023-07-20T03:30:19;7.43;;;2.92;;
70332;SDS011;57747;43.548;-5.704;2023-07-20T03:32:47;4.85;;;2.42;;
70332;SDS011;57747;43.548;-5.704;2023-07-20T03:35:12;8.25;;;2.97;;
70332;SDS011;57747;43.548;-5.704;2023-07-20T03:37:38;4.82;;;2.95;;
70332;SDS011;57747;43.548;-5.704;2023-07-20T03:40:03;8.02;;;3.08;;
70332;SDS011;57747;43.548;-5.704;2023-07-20T03:42:30;5.00;;;3.03;;
70332;SDS011;57747;43.548;-5.704;2023-07-20T03:44:55;7.00;;;2.88;;
70332;SDS011;57747;43.548;-5.704;2023-07-20T03:47:21;6.60;;;2.80;;
70332;SDS011;57747;43.548;-5.704;2023-07-20T03:49:46;6.63;;;3.08;;
70332;SDS011;57747;43.548;-5.704;2023-07-20T03:52:11;9.25;;;3.30;;
70332;SDS011;57747;43.548;-5.704;2023-07-20T03:54:37;5.63;;;2.90;;
70332;SDS011;57747;43.548;-5.704;2023-07-20T03:57:04;5.30;;;2.55;;
70332;SDS011;57747;43.548;-5.704;2023-07-20T03:59:30;5.47;;;2.90;;
70332;SDS011;57747;43.548;-5.704;2023-07-20T04:01:55;4.10;;;2.58;;
70332;SDS011;57747;43.548;-5.704;2023-07-20T04:04:24;8.40;;;3.00;;
70332;SDS011;57747;43.548;-5.704;2023-07-20T04:06:49;7.88;;;3.15;;
70332;SDS011;57747;43.548;-5.704;2023-07-20T04:09:14;6.18;;;2.50;;
70332;SDS011;57747;43.548;-5.704;2023-07-20T04:11:40;5.82;;;2.90;;
70332;SDS011;57747;43.548;-5.704;2023-07-20T04:14:05;6.97;;;2.95;;
70332;SDS011;57747;43.548;-5.704;2023-07-20T04:16:31;6.35;;;3.05;;
70332;SDS011;57747;43.548;-5.704;2023-07-20T04:18:56;7.13;;;3.03;;
70332;SDS011;57747;43.548;-5.704;2023-07-20T04:21:22;7.03;;;2.60;;
70332;SDS011;57747;43.548;-5.704;2023-07-20T04:23:47;7.40;;;2.70;;
70332;SDS011;57747;43.548;-5.704;2023-07-20T04:26:12;9.18;;;3.72;;
70332;SDS011;57747;43.548;-5.704;2023-07-20T04:28:40;6.13;;;2.80;;
70332;SDS011;57747;43.548;-5.704;2023-07-20T04:31:14;6.28;;;2.85;;
70332;SDS011;57747;43.548;-5.704;2023-07-20T04:33:40;5.78;;;2.78;;
70332;SDS011;57747;43.548;-5.704;2023-07-20T04:36:05;9.95;;;3.38;;
70332;SDS011;57747;43.548;-5.704;2023-07-20T04:38:30;6.68;;;2.80;;
70332;SDS011;57747;43.548;-5.704;2023-07-20T04:40:56;7.53;;;3.13;;
70332;SDS011;57747;43.548;-5.704;2023-07-20T04:43:21;9.65;;;2.97;;
70332;SDS011;57747;43.548;-5.704;2023-07-20T04:45:47;10.00;;;3.50;;
70332;SDS011;57747;43.548;-5.704;2023-07-20T04:48:13;10.50;;;3.40;;
70332;SDS011;57747;43.548;-5.704;2023-07-20T04:50:41;9.32;;;3.25;;
70332;SDS011;57747;43.548;-5.704;2023-07-20T04:53:08;8.05;;;2.88;;
70332;SDS011;57747;43.548;-5.704;2023-07-20T04:55:35;8.30;;;3.50;;
70332;SDS011;57747;43.548;-5.704;2023-07-20T04:58:01;5.82;;;3.17;;
70332;SDS011;57747;43.548;-5.704;2023-07-20T05:00:27;8.02;;;3.17;;
70332;SDS011;57747;43.548;-5.704;2023-07-20T05:02:52;8.75;;;3.05;;
70332;SDS011;57747;43.548;-5.704;2023-07-20T05:05:18;10.70;;;3.30;;
70332;SDS011;57747;43.548;-5.704;2023-07-20T05:07:43;16.00;;;3.80;;
70332;SDS011;57747;43.548;-5.704;2023-07-20T05:10:09;6.32;;;3.30;;
70332;SDS011;57747;43.548;-5.704;2023-07-20T05:12:34;8.48;;;3.22;;
70332;SDS011;57747;43.548;-5.704;2023-07-20T05:15:00;7.53;;;3.78;;
70332;SDS011;57747;43.548;-5.704;2023-07-20T05:17:25;9.77;;;3.10;;
70332;SDS011;57747;43.548;-5.704;2023-07-20T05:19:50;7.53;;;3.47;;
70332;SDS011;57747;43.548;-5.704;2023-07-20T05:22:16;7.80;;;3.63;;
70332;SDS011;57747;43.548;-5.704;2023-07-20T05:24:41;12.60;;;3.53;;
70332;SDS011;57747;43.548;-5.704;2023-07-20T05:27:07;10.70;;;4.32;;
70332;SDS011;57747;43.548;-5.704;2023-07-20T05:29:32;6.60;;;3.17;;
70332;SDS011;57747;43.548;-5.704;2023-07-20T05:31:58;11.43;;;3.90;;
70332;SDS011;57747;43.548;-5.704;2023-07-20T05:34:23;10.60;;;3.28;;
70332;SDS011;57747;43.548;-5.704;2023-07-20T05:36:49;9.45;;;3.40;;
70332;SDS011;57747;43.548;-5.704;2023-07-20T05:39:16;5.30;;;2.95;;
70332;SDS011;57747;43.548;-5.704;2023-07-20T05:41:57;5.88;;;3.42;;
70332;SDS011;57747;43.548;-5.704;2023-07-20T05:44:22;9.82;;;3.83;;
70332;SDS011;57747;43.548;-5.704;2023-07-20T05:46:48;8.68;;;3.40;;
70332;SDS011;57747;43.548;-5.704;2023-07-20T05:49:15;6.68;;;2.78;;
70332;SDS011;57747;43.548;-5.704;2023-07-20T05:51:41;10.63;;;3.45;;
70332;SDS011;57747;43.548;-5.704;2023-07-20T05:54:06;6.75;;;2.90;;
70332;SDS011;57747;43.548;-5.704;2023-07-20T05:56:32;9.52;;;3.30;;
70332;SDS011;57747;43.548;-5.704;2023-07-20T05:58:57;5.78;;;3.10;;
70332;SDS011;57747;43.548;-5.704;2023-07-20T06:01:22;4.75;;;3.00;;
70332;SDS011;57747;43.548;-5.704;2023-07-20T06:03:48;4.50;;;2.63;;
70332;SDS011;57747;43.548;-5.704;2023-07-20T06:06:13;12.65;;;3.20;;
70332;SDS011;57747;43.548;-5.704;2023-07-20T06:08:40;6.82;;;3.55;;
70332;SDS011;57747;43.548;-5.704;2023-07-20T06:11:05;8.60;;;3.33;;
70332;SDS011;57747;43.548;-5.704;2023-07-20T06:13:30;8.05;;;3.38;;
70332;SDS011;57747;43.548;-5.704;2023-07-20T06:15:56;8.45;;;4.13;;
70332;SDS011;57747;43.548;-5.704;2023-07-20T06:18:24;5.57;;;2.90;;
70332;SDS011;57747;43.548;-5.704;2023-07-20T06:20:50;8.40;;;3.35;;
70332;SDS011;57747;43.548;-5.704;2023-07-20T06:23:16;9.50;;;3.47;;
70332;SDS011;57747;43.548;-5.704;2023-07-20T06:25:41;6.47;;;3.10;;
70332;SDS011;57747;43.548;-5.704;2023-07-20T06:28:06;10.98;;;3.72;;
70332;SDS011;57747;43.548;-5.704;2023-07-20T06:30:33;11.48;;;3.60;;
70332;SDS011;57747;43.548;-5.704;2023-07-20T06:32:58;21.75;;;3.60;;
70332;SDS011;57747;43.548;-5.704;2023-07-20T06:35:28;7.93;;;3.28;;
70332;SDS011;57747;43.548;-5.704;2023-07-20T06:37:53;12.85;;;3.45;;
70332;SDS011;57747;43.548;-5.704;2023-07-20T06:40:18;11.20;;;3.90;;
70332;SDS011;57747;43.548;-5.704;2023-07-20T06:42:44;14.50;;;3.80;;
70332;SDS011;57747;43.548;-5.704;2023-07-20T06:45:09;10.95;;;3.25;;
70332;SDS011;57747;43.548;-5.704;2023-07-20T06:47:37;11.38;;;3.63;;
70332;SDS011;57747;43.548;-5.704;2023-07-20T06:50:03;6.28;;;2.85;;
70332;SDS011;57747;43.548;-5.704;2023-07-20T06:52:28;7.80;;;3.22;;
70332;SDS011;57747;43.548;-5.704;2023-07-20T06:54:54;8.35;;;3.50;;
70332;SDS011;57747;43.548;-5.704;2023-07-20T06:57:19;10.20;;;3.50;;
70332;SDS011;57747;43.548;-5.704;2023-07-20T06:59:44;6.43;;;3.10;;
70332;SDS011;57747;43.548;-5.704;2023-07-20T07:02:10;18.30;;;3.70;;
70332;SDS011;57747;43.548;-5.704;2023-07-20T07:04:35;12.30;;;3.70;;
70332;SDS011;57747;43.548;-5.704;2023-07-20T07:07:01;14.35;;;3.60;;
70332;SDS011;57747;43.548;-5.704;2023-07-20T07:09:28;8.70;;;3.67;;
70332;SDS011;57747;43.548;-5.704;2023-07-20T07:11:56;9.75;;;3.50;;
70332;SDS011;57747;43.548;-5.704;2023-07-20T07:14:21;6.95;;;3.30;;
70332;SDS011;57747;43.548;-5.704;2023-07-20T07:16:47;16.35;;;3.60;;
70332;SDS011;57747;43.548;-5.704;2023-07-20T07:19:13;9.15;;;3.40;;
70332;SDS011;57747;43.548;-5.704;2023-07-20T07:21:38;11.48;;;3.80;;
70332;SDS011;57747;43.548;-5.704;2023-07-20T07:24:03;12.27;;;3.38;;
70332;SDS011;57747;43.548;-5.704;2023-07-20T07:26:29;6.30;;;3.10;;
70332;SDS011;57747;43.548;-5.704;2023-07-20T07:28:54;7.00;;;3.40;;
70332;SDS011;57747;43.548;-5.704;2023-07-20T07:31:19;9.43;;;3.58;;
70332;SDS011;57747;43.548;-5.704;2023-07-20T07:33:45;10.02;;;3.70;;
70332;SDS011;57747;43.548;-5.704;2023-07-20T07:36:11;4.80;;;2.90;;
70332;SDS011;57747;43.548;-5.704;2023-07-20T07:38:36;8.52;;;3.22;;
70332;SDS011;57747;43.548;-5.704;2023-07-20T07:41:02;8.43;;;3.08;;
70332;SDS011;57747;43.548;-5.704;2023-07-20T07:43:27;6.55;;;3.05;;
70332;SDS011;57747;43.548;-5.704;2023-07-20T07:45:53;6.38;;;3.03;;
70332;SDS011;57747;43.548;-5.704;2023-07-20T07:48:19;8.48;;;3.30;;
70332;SDS011;57747;43.548;-5.704;2023-07-20T07:50:46;6.93;;;3.00;;
70332;SDS011;57747;43.548;-5.704;2023-07-20T07:53:11;6.22;;;3.20;;
70332;SDS011;57747;43.548;-5.704;2023-07-20T07:55:37;5.65;;;2.78;;
70332;SDS011;57747;43.548;-5.704;2023-07-20T07:58:02;4.97;;;2.83;;
70332;SDS011;57747;43.548;-5.704;2023-07-20T08:00:27;7.32;;;3.10;;
70332;SDS011;57747;43.548;-5.704;2023-07-20T08:02:53;6.38;;;3.10;;
70332;SDS011;57747;43.548;-5.704;2023-07-20T08:05:18;5.72;;;2.42;;
70332;SDS011;57747;43.548;-5.704;2023-07-20T08:07:43;4.93;;;2.90;;
70332;SDS011;57747;43.548;-5.704;2023-07-20T08:10:09;6.28;;;2.63;;
70332;SDS011;57747;43.548;-5.704;2023-07-20T08:12:37;5.93;;;2.95;;
70332;SDS011;57747;43.548;-5.704;2023-07-20T08:15:02;7.97;;;2.78;;
70332;SDS011;57747;43.548;-5.704;2023-07-20T08:17:29;7.65;;;2.95;;
70332;SDS011;57747;43.548;-5.704;2023-07-20T08:19:54;6.45;;;2.92;;
70332;SDS011;57747;43.548;-5.704;2023-07-20T08:22:19;7.43;;;2.97;;
70332;SDS011;57747;43.548;-5.704;2023-07-20T08:24:45;4.68;;;2.83;;
70332;SDS011;57747;43.548;-5.704;2023-07-20T08:27:10;5.03;;;2.88;;
70332;SDS011;57747;43.548;-5.704;2023-07-20T08:29:36;5.20;;;2.55;;
70332;SDS011;57747;43.548;-5.704;2023-07-20T08:32:02;7.20;;;2.90;;
70332;SDS011;57747;43.548;-5.704;2023-07-20T08:34:27;7.07;;;3.05;;
70332;SDS011;57747;43.548;-5.704;2023-07-20T08:36:53;8.63;;;3.05;;
70332;SDS011;57747;43.548;-5.704;2023-07-20T08:39:18;6.03;;;2.97;;
70332;SDS011;57747;43.548;-5.704;2023-07-20T08:41:43;7.00;;;3.08;;
70332;SDS011;57747;43.548;-5.704;2023-07-20T08:44:11;7.80;;;2.97;;
70332;SDS011;57747;43.548;-5.704;2023-07-20T08:46:37;5.07;;;2.83;;
70332;SDS011;57747;43.548;-5.704;2023-07-20T08:49:06;6.03;;;2.92;;
70332;SDS011;57747;43.548;-5.704;2023-07-20T08:51:35;8.48;;;2.65;;
70332;SDS011;57747;43.548;-5.704;2023-07-20T08:54:03;6.22;;;2.60;;
70332;SDS011;57747;43.548;-5.704;2023-07-20T08:56:29;3.13;;;2.17;;
70332;SDS011;57747;43.548;-5.704;2023-07-20T08:58:56;7.68;;;2.42;;
70332;SDS011;57747;43.548;-5.704;2023-07-20T09:01:24;4.57;;;1.92;;
70332;SDS011;57747;43.548;-5.704;2023-07-20T09:03:52;4.47;;;1.80;;
70332;SDS011;57747;43.548;-5.704;2023-07-20T09:06:17;7.28;;;1.75;;
70332;SDS011;57747;43.548;-5.704;2023-07-20T09:08:46;5.88;;;1.98;;
70332;SDS011;57747;43.548;-5.704;2023-07-20T09:11:11;6.07;;;1.60;;
70332;SDS011;57747;43.548;-5.704;2023-07-20T09:13:38;7.40;;;1.60;;
70332;SDS011;57747;43.548;-5.704;2023-07-20T09:16:03;10.10;;;1.25;;
70332;SDS011;57747;43.548;-5.704;2023-07-20T09:18:30;4.90;;;1.15;;
70332;SDS011;57747;43.548;-5.704;2023-07-20T09:21:02;24.95;;;2.20;;
70332;SDS011;57747;43.548;-5.704;2023-07-20T09:23:32;1.23;;;0.88;;
70332;SDS011;57747;43.548;-5.704;2023-07-20T09:25:57;4.75;;;1.10;;
70332;SDS011;57747;43.548;-5.704;2023-07-20T09:28:25;3.92;;;1.15;;
70332;SDS011;57747;43.548;-5.704;2023-07-20T09:30:51;1.95;;;1.00;;
70332;SDS011;57747;43.548;-5.704;2023-07-20T09:33:20;5.57;;;1.15;;
70332;SDS011;57747;43.548;-5.704;2023-07-20T09:35:46;2.00;;;1.10;;
70332;SDS011;57747;43.548;-5.704;2023-07-20T09:38:11;7.53;;;1.30;;
70332;SDS011;57747;43.548;-5.704;2023-07-20T09:40:37;4.38;;;1.00;;
70332;SDS011;57747;43.548;-5.704;2023-07-20T09:43:08;2.53;;;0.95;;
70332;SDS011;57747;43.548;-5.704;2023-07-20T09:45:40;3.58;;;1.48;;
70332;SDS011;57747;43.548;-5.704;2023-07-20T09:48:10;1.83;;;1.17;;
70332;SDS011;57747;43.548;-5.704;2023-07-20T09:50:43;3.60;;;1.25;;
70332;SDS011;57747;43.548;-5.704;2023-07-20T09:53:16;1.85;;;0.95;;
70332;SDS011;57747;43.548;-5.704;2023-07-20T09:55:43;2.17;;;1.15;;
70332;SDS011;57747;43.548;-5.704;2023-07-20T09:58:09;2.97;;;1.00;;
70332;SDS011;57747;43.548;-5.704;2023-07-20T10:00:38;2.97;;;1.52;;
70332;SDS011;57747;43.548;-5.704;2023-07-20T10:03:06;1.52;;;0.80;;
70332;SDS011;57747;43.548;-5.704;2023-07-20T10:05:38;3.25;;;1.17;;
70332;SDS011;57747;43.548;-5.704;2023-07-20T10:08:04;2.95;;;1.05;;
70332;SDS011;57747;43.548;-5.704;2023-07-20T10:10:33;4.45;;;0.95;;
70332;SDS011;57747;43.548;-5.704;2023-07-20T10:13:02;6.25;;;1.05;;
70332;SDS011;57747;43.548;-5.704;2023-07-20T10:15:37;2.97;;;1.10;;
70332;SDS011;57747;43.548;-5.704;2023-07-20T10:20:36;3.95;;;1.20;;
70332;SDS011;57747;43.548;-5.704;2023-07-20T10:23:04;3.88;;;1.02;;
70332;SDS011;57747;43.548;-5.704;2023-07-20T10:25:29;2.60;;;1.00;;
70332;SDS011;57747;43.548;-5.704;2023-07-20T10:27:57;2.30;;;1.10;;
70332;SDS011;57747;43.548;-5.704;2023-07-20T10:30:23;3.42;;;1.23;;
70332;SDS011;57747;43.548;-5.704;2023-07-20T10:32:49;3.58;;;1.23;;
70332;SDS011;57747;43.548;-5.704;2023-07-20T10:35:16;2.00;;;0.90;;
70332;SDS011;57747;43.548;-5.704;2023-07-20T10:37:46;2.05;;;0.90;;
70332;SDS011;57747;43.548;-5.704;2023-07-20T10:40:27;6.18;;;0.98;;
70332;SDS011;57747;43.548;-5.704;2023-07-20T10:42:57;4.25;;;1.10;;
70332;SDS011;57747;43.548;-5.704;2023-07-20T10:45:32;3.33;;;1.08;;
70332;SDS011;57747;43.548;-5.704;2023-07-20T10:47:58;2.17;;;1.10;;
70332;SDS011;57747;43.548;-5.704;2023-07-20T10:50:23;3.10;;;1.20;;
70332;SDS011;57747;43.548;-5.704;2023-07-20T10:53:03;1.80;;;1.20;;
70332;SDS011;57747;43.548;-5.704;2023-07-20T10:55:29;6.80;;;1.27;;
70332;SDS011;57747;43.548;-5.704;2023-07-20T11:00:57;2.97;;;1.50;;
70332;SDS011;57747;43.548;-5.704;2023-07-20T11:03:31;2.65;;;1.45;;
70332;SDS011;57747;43.548;-5.704;2023-07-20T11:05:57;3.13;;;1.50;;
70332;SDS011;57747;43.548;-5.704;2023-07-20T11:08:40;2.70;;;0.93;;
70332;SDS011;57747;43.548;-5.704;2023-07-20T11:11:22;4.65;;;1.30;;
70332;SDS011;57747;43.548;-5.704;2023-07-20T11:13:55;3.70;;;1.10;;
70332;SDS011;57747;43.548;-5.704;2023-07-20T11:16:33;4.22;;;1.15;;
70332;SDS011;57747;43.548;-5.704;2023-07-20T11:18:59;1.95;;;1.05;;
70332;SDS011;57747;43.548;-5.704;2023-07-20T11:21:24;3.83;;;1.00;;
70332;SDS011;57747;43.548;-5.704;2023-07-20T11:23:51;2.25;;;1.05;;
70332;SDS011;57747;43.548;-5.704;2023-07-20T11:26:17;5.10;;;1.25;;
70332;SDS011;57747;43.548;-5.704;2023-07-20T11:28:43;3.40;;;1.23;;
70332;SDS011;57747;43.548;-5.704;2023-07-20T11:31:08;1.52;;;0.90;;
70332;SDS011;57747;43.548;-5.704;2023-07-20T11:33:34;2.72;;;1.10;;
70332;SDS011;57747;43.548;-5.704;2023-07-20T11:36:01;3.80;;;1.30;;
70332;SDS011;57747;43.548;-5.704;2023-07-20T11:38:33;2.78;;;1.05;;
70332;SDS011;57747;43.548;-5.704;2023-07-20T11:40:58;4.25;;;1.13;;
70332;SDS011;57747;43.548;-5.704;2023-07-20T11:43:26;4.07;;;1.23;;
70332;SDS011;57747;43.548;-5.704;2023-07-20T11:45:52;3.15;;;1.20;;
70332;SDS011;57747;43.548;-5.704;2023-07-20T11:48:19;2.28;;;1.30;;
70332;SDS011;57747;43.548;-5.704;2023-07-20T11:50:45;2.17;;;1.13;;
70332;SDS011;57747;43.548;-5.704;2023-07-20T11:53:10;2.67;;;1.08;;
70332;SDS011;57747;43.548;-5.704;2023-07-20T11:55:36;3.72;;;1.25;;
70332;SDS011;57747;43.548;-5.704;2023-07-20T11:58:04;4.40;;;1.10;;
70332;SDS011;57747;43.548;-5.704;2023-07-20T12:00:31;1.73;;;1.00;;
70332;SDS011;57747;43.548;-5.704;2023-07-20T12:09:01;3.20;;;1.17;;
70332;SDS011;57747;43.548;-5.704;2023-07-20T12:11:30;2.53;;;1.05;;
70332;SDS011;57747;43.548;-5.704;2023-07-20T12:13:59;2.15;;;1.13;;
70332;SDS011;57747;43.548;-5.704;2023-07-20T12:16:26;2.80;;;0.90;;
70332;SDS011;57747;43.548;-5.704;2023-07-20T12:18:55;3.58;;;1.23;;
70332;SDS011;57747;43.548;-5.704;2023-07-20T12:21:24;2.92;;;1.05;;
70332;SDS011;57747;43.548;-5.704;2023-07-20T12:23:49;3.55;;;1.40;;
70332;SDS011;57747;43.548;-5.704;2023-07-20T12:26:17;3.05;;;1.15;;
70332;SDS011;57747;43.548;-5.704;2023-07-20T12:28:43;2.83;;;1.13;;
70332;SDS011;57747;43.548;-5.704;2023-07-20T12:31:08;2.83;;;1.23;;
70332;SDS011;57747;43.548;-5.704;2023-07-20T12:33:34;4.80;;;1.88;;
70332;SDS011;57747;43.548;-5.704;2023-07-20T12:36:02;2.58;;;1.17;;
70332;SDS011;57747;43.548;-5.704;2023-07-20T12:38:28;2.55;;;1.17;;
70332;SDS011;57747;43.548;-5.704;2023-07-20T12:40:55;2.72;;;1.17;;
70332;SDS011;57747;43.548;-5.704;2023-07-20T12:43:21;4.35;;;1.40;;
70332;SDS011;57747;43.548;-5.704;2023-07-20T12:45:46;3.45;;;1.15;;
70332;SDS011;57747;43.548;-5.704;2023-07-20T12:48:12;2.65;;;1.20;;
70332;SDS011;57747;43.548;-5.704;2023-07-20T12:50:37;3.63;;;1.08;;
70332;SDS011;57747;43.548;-5.704;2023-07-20T12:53:02;2.75;;;1.23;;
70332;SDS011;57747;43.548;-5.704;2023-07-20T12:55:28;2.17;;;1.10;;
70332;SDS011;57747;43.548;-5.704;2023-07-20T12:57:54;3.17;;;1.20;;
70332;SDS011;57747;43.548;-5.704;2023-07-20T13:00:20;2.72;;;1.00;;
70332;SDS011;57747;43.548;-5.704;2023-07-20T13:02:48;3.30;;;1.33;;
70332;SDS011;57747;43.548;-5.704;2023-07-20T13:05:16;2.88;;;1.23;;
70332;SDS011;57747;43.548;-5.704;2023-07-20T13:07:41;3.08;;;1.30;;
70332;SDS011;57747;43.548;-5.704;2023-07-20T13:10:07;2.42;;;1.20;;
70332;SDS011;57747;43.548;-5.704;2023-07-20T13:12:33;4.18;;;1.65;;
70332;SDS011;57747;43.548;-5.704;2023-07-20T13:14:59;3.35;;;1.15;;
70332;SDS011;57747;43.548;-5.704;2023-07-20T13:17:28;4.35;;;1.42;;
70332;SDS011;57747;43.548;-5.704;2023-07-20T13:19:59;3.45;;;1.10;;
70332;SDS011;57747;43.548;-5.704;2023-07-20T13:22:27;1.70;;;1.00;;
70332;SDS011;57747;43.548;-5.704;2023-07-20T13:24:52;2.60;;;0.98;;
70332;SDS011;57747;43.548;-5.704;2023-07-20T13:27:17;1.15;;;0.80;;
70332;SDS011;57747;43.548;-5.704;2023-07-20T13:29:43;2.67;;;1.08;;
70332;SDS011;57747;43.548;-5.704;2023-07-20T13:32:12;1.67;;;0.90;;
70332;SDS011;57747;43.548;-5.704;2023-07-20T13:34:38;5.70;;;1.30;;
70332;SDS011;57747;43.548;-5.704;2023-07-20T13:37:03;2.77;;;1.20;;
70332;SDS011;57747;43.548;-5.704;2023-07-20T13:39:29;3.38;;;1.05;;
70332;SDS011;57747;43.548;-5.704;2023-07-20T13:41:54;2.67;;;1.20;;
70332;SDS011;57747;43.548;-5.704;2023-07-20T13:44:20;2.90;;;1.20;;
70332;SDS011;57747;43.548;-5.704;2023-07-20T13:46:46;2.08;;;1.10;;
70332;SDS011;57747;43.548;-5.704;2023-07-20T13:49:14;2.60;;;1.20;;
70332;SDS011;57747;43.548;-5.704;2023-07-20T13:51:39;4.07;;;1.55;;
70332;SDS011;57747;43.548;-5.704;2023-07-20T13:54:05;2.08;;;1.00;;
70332;SDS011;57747;43.548;-5.704;2023-07-20T13:56:31;4.10;;;1.30;;
70332;SDS011;57747;43.548;-5.704;2023-07-20T13:58:56;2.10;;;1.20;;
70332;SDS011;57747;43.548;-5.704;2023-07-20T14:01:24;3.67;;;1.13;;
70332;SDS011;57747;43.548;-5.704;2023-07-20T14:03:50;2.63;;;1.10;;
70332;SDS011;57747;43.548;-5.704;2023-07-20T14:06:15;2.92;;;1.10;;
70332;SDS011;57747;43.548;-5.704;2023-07-20T14:08:41;2.53;;;1.13;;
70332;SDS011;57747;43.548;-5.704;2023-07-20T14:11:08;2.33;;;1.10;;
70332;SDS011;57747;43.548;-5.704;2023-07-20T14:13:33;3.00;;;1.10;;
70332;SDS011;57747;43.548;-5.704;2023-07-20T14:16:01;3.00;;;1.20;;
70332;SDS011;57747;43.548;-5.704;2023-07-20T14:18:29;3.78;;;1.27;;
70332;SDS011;57747;43.548;-5.704;2023-07-20T14:20:54;4.45;;;1.30;;
70332;SDS011;57747;43.548;-5.704;2023-07-20T14:23:20;4.50;;;1.17;;
70332;SDS011;57747;43.548;-5.704;2023-07-20T14:25:45;2.22;;;1.10;;
70332;SDS011;57747;43.548;-5.704;2023-07-20T14:28:11;4.30;;;1.15;;
70332;SDS011;57747;43.548;-5.704;2023-07-20T14:30:37;4.95;;;1.30;;
70332;SDS011;57747;43.548;-5.704;2023-07-20T14:33:02;3.60;;;1.15;;
70332;SDS011;57747;43.548;-5.704;2023-07-20T14:35:27;3.80;;;1.42;;
70332;SDS011;57747;43.548;-5.704;2023-07-20T14:37:53;4.97;;;1.40;;
70332;SDS011;57747;43.548;-5.704;2023-07-20T14:40:23;5.88;;;1.27;;
70332;SDS011;57747;43.548;-5.704;2023-07-20T14:42:49;3.97;;;1.08;;
70332;SDS011;57747;43.548;-5.704;2023-07-20T14:45:19;3.67;;;1.27;;
70332;SDS011;57747;43.548;-5.704;2023-07-20T14:47:44;2.78;;;1.10;;
70332;SDS011;57747;43.548;-5.704;2023-07-20T14:50:10;6.85;;;1.25;;
70332;SDS011;57747;43.548;-5.704;2023-07-20T14:52:35;4.50;;;1.25;;
70332;SDS011;57747;43.548;-5.704;2023-07-20T14:55:01;2.78;;;1.40;;
70332;SDS011;57747;43.548;-5.704;2023-07-20T14:57:29;2.58;;;1.17;;